Time;durP1;ratioP1;P1;durP2;ratioP2;P2;SDS_P1;SDS_P2;PMS_P1;PMS_P2;Temp;Humidity;BMP_temperature;BMP_pressure;BME280_temperature;BME280_humidity;BME280_pressure;Samples;Min_cycle;Max_cycle;Signal;HPM_P1;HPM_P2
2023/02/17 00:00:58;;;;;;;19.67;13.23;;;5.70;99.90;;;;;;4918434;29;20468;-71
2023/02/17 00:03:24;;;;;;;23.17;14.47;;;5.70;99.90;;;;;;4929090;29;20467;-71
2023/02/17 00:05:50;;;;;;;20.90;13.63;;;5.70;99.90;;;;;;4927061;29;20494;-70
2023/02/17 00:08:16;;;;;;;21.87;13.83;;;5.70;99.90;;;;;;4926341;29;20543;-70
2023/02/17 00:10:42;;;;;;;20.87;14.10;;;5.80;99.90;;;;;;4935920;28;20985;-71
2023/02/17 00:13:07;;;;;;;28.37;15.70;;;5.80;99.90;;;;;;4928552;29;20290;-72
2023/02/17 00:15:33;;;;;;;19.60;13.50;;;5.80;99.90;;;;;;4911851;29;20253;-70
2023/02/17 00:17:59;;;;;;;26.10;16.47;;;5.80;99.90;;;;;;4920490;29;20241;-71
2023/02/17 00:20:24;;;;;;;24.73;13.90;;;5.80;99.90;;;;;;4922486;29;20235;-72
2023/02/17 00:22:50;;;;;;;20.63;14.50;;;5.80;99.90;;;;;;4920838;28;20224;-72
2023/02/17 00:25:16;;;;;;;24.30;14.53;;;5.80;99.90;;;;;;4920523;29;20232;-71
2023/02/17 00:27:42;;;;;;;23.23;15.03;;;5.80;99.90;;;;;;4926533;29;20242;-70
2023/02/17 00:30:08;;;;;;;27.77;17.80;;;5.80;99.90;;;;;;4928567;29;20227;-71
2023/02/17 00:32:33;;;;;;;32.53;21.23;;;5.80;99.90;;;;;;4930850;29;20478;-71
2023/02/17 00:34:59;;;;;;;29.80;20.40;;;5.80;99.90;;;;;;4907685;28;20724;-71
2023/02/17 00:37:25;;;;;;;31.97;19.63;;;5.80;99.90;;;;;;4919537;29;20595;-69
2023/02/17 00:39:50;;;;;;;33.50;19.90;;;5.80;99.90;;;;;;4903913;29;20685;-72
2023/02/17 00:42:17;;;;;;;29.30;16.70;;;5.80;99.90;;;;;;4927133;28;20298;-70
2023/02/17 00:44:43;;;;;;;26.77;17.27;;;5.80;99.90;;;;;;4923225;29;20580;-71
2023/02/17 00:47:09;;;;;;;27.50;16.70;;;5.80;99.90;;;;;;4920776;28;20234;-71
2023/02/17 00:49:34;;;;;;;26.43;16.33;;;5.90;99.90;;;;;;4942663;28;20235;-71
2023/02/17 00:52:01;;;;;;;24.27;16.20;;;5.90;99.90;;;;;;4919710;29;20588;-71
2023/02/17 00:54:27;;;;;;;27.10;16.23;;;5.90;99.90;;;;;;4944966;28;20243;-69
2023/02/17 00:56:53;;;;;;;28.70;16.13;;;5.90;99.90;;;;;;4907573;28;20455;-72
2023/02/17 00:59:19;;;;;;;28.27;16.97;;;5.90;99.90;;;;;;4928350;29;20530;-68
2023/02/17 01:01:45;;;;;;;23.00;12.80;;;6.00;99.90;;;;;;4917679;29;20227;-71
2023/02/17 01:04:10;;;;;;;14.43;10.30;;;6.00;99.90;;;;;;4940742;28;20232;-71
2023/02/17 01:06:38;;;;;;;13.63;10.10;;;6.00;99.90;;;;;;4938251;28;20219;-71
2023/02/17 01:09:08;;;;;;;15.87;10.03;;;6.10;99.90;;;;;;4926007;29;20486;-70
2023/02/17 01:11:35;;;;;;;12.40;8.40;;;6.10;99.90;;;;;;4928737;29;20518;-70
2023/02/17 01:14:04;;;;;;;15.00;8.40;;;6.20;99.90;;;;;;4927307;29;20555;-69
2023/02/17 01:16:34;;;;;;;10.10;7.47;;;6.20;99.90;;;;;;4937323;28;20459;-68
2023/02/17 01:19:04;;;;;;;11.63;8.17;;;6.20;99.90;;;;;;4919417;29;20486;-71
2023/02/17 01:21:31;;;;;;;10.63;7.47;;;6.30;99.90;;;;;;4927441;29;20529;-70
2023/02/17 01:24:00;;;;;;;14.07;8.67;;;6.30;99.90;;;;;;4920019;29;20506;-70
2023/02/17 01:26:28;;;;;;;11.13;6.83;;;6.40;99.90;;;;;;4903886;29;20539;-70
2023/02/17 01:28:54;;;;;;;14.40;9.07;;;6.50;99.90;;;;;;4915162;28;20550;-70
2023/02/17 01:31:21;;;;;;;12.90;8.10;;;6.70;99.90;;;;;;4927755;29;20976;-70
2023/02/17 01:33:48;;;;;;;12.70;7.60;;;7.00;99.90;;;;;;4927805;28;20474;-71
2023/02/17 01:36:17;;;;;;;11.93;8.10;;;7.20;99.90;;;;;;4920787;29;20527;-70
2023/02/17 01:38:45;;;;;;;12.67;8.40;;;7.20;99.90;;;;;;4922024;29;20463;-70
2023/02/17 01:41:12;;;;;;;14.20;7.87;;;7.40;99.90;;;;;;4904828;29;20872;-69
2023/02/17 01:43:40;;;;;;;14.67;8.73;;;7.40;99.90;;;;;;4924914;29;20488;-70
2023/02/17 01:46:08;;;;;;;11.20;7.40;;;7.40;99.90;;;;;;4938233;28;20489;-70
2023/02/17 01:48:47;;;;;;;15.30;9.97;;;7.40;99.90;;;;;;4919983;29;20854;-70
2023/02/17 01:51:19;;;;;;;11.37;7.13;;;7.40;99.90;;;;;;4923373;29;20454;-70
2023/02/17 01:54:00;;;;;;;13.80;7.90;;;7.40;99.90;;;;;;4926809;29;20494;-70
2023/02/17 01:56:28;;;;;;;13.60;7.60;;;7.40;99.90;;;;;;4944620;28;20486;-70
2023/02/17 01:59:01;;;;;;;14.87;8.60;;;7.40;99.90;;;;;;4941870;28;20550;-70
2023/02/17 02:01:28;;;;;;;14.60;9.00;;;7.50;99.90;;;;;;4911979;29;20451;-70
2023/02/17 02:03:55;;;;;;;15.30;8.63;;;7.40;99.90;;;;;;4910546;29;20467;-70
2023/02/17 02:06:24;;;;;;;13.03;7.87;;;7.40;99.90;;;;;;4926242;29;20459;-70
2023/02/17 02:08:50;;;;;;;13.10;7.87;;;7.40;99.90;;;;;;4916570;29;20241;-70
2023/02/17 02:11:16;;;;;;;12.10;7.83;;;7.40;99.90;;;;;;4944571;28;20538;-70
2023/02/17 02:13:44;;;;;;;10.90;7.20;;;7.40;99.90;;;;;;4922610;29;20220;-71
2023/02/17 02:16:22;;;;;;;12.00;7.97;;;7.60;99.90;;;;;;4953903;28;20435;-70
2023/02/17 02:19:09;;;;;;;12.23;7.13;;;7.60;99.90;;;;;;4922780;28;20309;-70
2023/02/17 02:21:53;;;;;;;13.07;8.60;;;7.60;99.90;;;;;;4909239;29;20460;-70
2023/02/17 02:24:37;;;;;;;12.17;7.00;;;7.60;99.90;;;;;;4943008;28;20469;-71
2023/02/17 02:27:21;;;;;;;10.20;7.13;;;7.60;99.90;;;;;;4922064;29;20540;-70
2023/02/17 02:29:56;;;;;;;13.33;8.70;;;7.60;99.90;;;;;;4946268;28;20510;-71
2023/02/17 02:32:58;;;;;;;11.43;6.57;;;7.60;99.90;;;;;;4926847;29;20533;-71
2023/02/17 02:35:32;;;;;;;7.97;6.67;;;7.80;99.90;;;;;;4932285;28;20502;-70
2023/02/17 02:38:15;;;;;;;12.10;7.47;;;7.80;99.90;;;;;;4915454;29;20471;-70
2023/02/17 02:40:49;;;;;;;9.20;6.80;;;7.70;99.90;;;;;;4927359;29;20495;-69
2023/02/17 02:43:15;;;;;;;10.97;6.80;;;7.80;99.90;;;;;;4924314;29;20455;-70
2023/02/17 02:45:41;;;;;;;9.97;6.60;;;7.80;99.90;;;;;;4938707;28;20456;-70
2023/02/17 02:48:06;;;;;;;9.07;6.70;;;7.90;99.90;;;;;;4918673;29;20457;-70
2023/02/17 02:50:35;;;;;;;10.20;6.90;;;7.90;99.90;;;;;;4910721;29;20619;-71
2023/02/17 02:53:30;;;;;;;11.00;7.63;;;8.10;99.90;;;;;;4937432;28;20626;-70
2023/02/17 02:56:35;;;;;;;9.67;7.60;;;8.10;99.90;;;;;;4925714;28;20464;-70
2023/02/17 02:59:29;;;;;;;9.73;6.60;;;8.00;99.90;;;;;;4908928;29;20992;-71
2023/02/17 03:02:26;;;;;;;10.03;7.07;;;8.10;99.90;;;;;;4899680;29;20575;-70
2023/02/17 03:05:29;;;;;;;10.43;6.93;;;8.10;99.90;;;;;;4916742;28;20482;-71
2023/02/17 03:08:12;;;;;;;11.17;8.03;;;8.00;99.90;;;;;;4949992;28;20459;-70
2023/02/17 03:10:50;;;;;;;9.60;7.00;;;8.00;99.90;;;;;;4917152;29;20456;-71
2023/02/17 03:13:17;;;;;;;11.20;7.10;;;8.10;99.90;;;;;;4919063;29;20456;-69
2023/02/17 03:15:43;;;;;;;10.50;7.73;;;8.10;99.90;;;;;;4909070;29;20468;-70
2023/02/17 03:18:10;;;;;;;11.03;7.17;;;8.20;99.90;;;;;;4926931;29;20989;-70
2023/02/17 03:21:00;;;;;;;14.13;7.00;;;8.10;99.90;;;;;;4902994;29;20459;-70
2023/02/17 03:23:26;;;;;;;8.63;6.50;;;8.10;99.90;;;;;;4918213;29;20426;-68
2023/02/17 03:25:52;;;;;;;10.37;7.07;;;8.10;99.90;;;;;;4917219;29;20458;-71
2023/02/17 03:28:17;;;;;;;16.63;7.50;;;8.10;99.90;;;;;;4926751;29;20227;-70
2023/02/17 03:30:43;;;;;;;12.43;7.57;;;8.20;99.90;;;;;;4913510;28;20216;-70
2023/02/17 03:33:09;;;;;;;17.00;7.77;;;8.30;99.90;;;;;;4926645;29;20458;-71
2023/02/17 03:35:35;;;;;;;10.17;7.23;;;8.30;99.90;;;;;;4928866;28;20232;-71
2023/02/17 03:38:01;;;;;;;13.43;6.93;;;8.30;99.90;;;;;;4921129;29;20270;-71
2023/02/17 03:40:27;;;;;;;11.53;6.40;;;8.40;99.90;;;;;;4925292;29;20231;-70
2023/02/17 03:42:52;;;;;;;10.53;7.23;;;8.40;99.90;;;;;;4917404;29;20467;-70
2023/02/17 03:45:18;;;;;;;9.60;6.17;;;8.40;99.90;;;;;;4928770;29;20235;-70
2023/02/17 03:47:44;;;;;;;13.43;7.47;;;8.40;99.90;;;;;;4924385;29;20220;-70
2023/02/17 03:50:09;;;;;;;11.10;6.63;;;8.40;99.90;;;;;;4914509;28;20241;-71
2023/02/17 03:52:35;;;;;;;10.10;7.20;;;8.40;99.90;;;;;;4922554;29;20697;-70
2023/02/17 03:55:01;;;;;;;6.43;5.50;;;8.40;99.90;;;;;;4924022;29;20223;-70
2023/02/17 03:57:26;;;;;;;8.60;6.10;;;8.50;99.90;;;;;;4923817;29;20231;-70
2023/02/17 03:59:52;;;;;;;11.00;6.83;;;8.50;99.90;;;;;;4911973;29;20226;-70
2023/02/17 04:02:18;;;;;;;7.93;5.53;;;8.60;99.90;;;;;;4933134;29;20231;-68
2023/02/17 04:04:43;;;;;;;10.63;6.63;;;8.50;99.90;;;;;;4921384;29;20250;-70
2023/02/17 04:07:09;;;;;;;6.90;5.80;;;8.50;99.90;;;;;;4945470;28;20585;-69
2023/02/17 04:09:35;;;;;;;10.43;5.90;;;8.60;99.90;;;;;;4949756;28;20239;-70
2023/02/17 04:12:00;;;;;;;8.50;6.43;;;8.60;99.90;;;;;;4921485;29;20251;-71
2023/02/17 04:14:26;;;;;;;8.93;5.10;;;8.60;99.90;;;;;;4930880;28;20227;-70
2023/02/17 04:16:52;;;;;;;9.93;6.33;;;8.70;99.90;;;;;;4927031;29;20231;-71
2023/02/17 04:19:17;;;;;;;8.90;5.00;;;8.70;99.90;;;;;;4944130;28;20230;-70
2023/02/17 04:21:43;;;;;;;8.60;6.23;;;8.70;99.90;;;;;;4919955;29;20685;-72
2023/02/17 04:24:08;;;;;;;7.17;4.90;;;8.60;99.90;;;;;;4929489;28;20748;-70
2023/02/17 04:26:34;;;;;;;7.90;5.93;;;8.70;99.90;;;;;;4920935;29;20702;-70
2023/02/17 04:29:03;;;;;;;7.40;5.43;;;8.70;99.90;;;;;;4925503;29;20277;-70
2023/02/17 04:31:29;;;;;;;8.30;5.67;;;8.80;99.90;;;;;;4922709;29;20223;-71
2023/02/17 04:33:54;;;;;;;6.93;4.40;;;8.80;99.90;;;;;;4927169;29;20475;-70
2023/02/17 04:36:20;;;;;;;6.30;4.33;;;8.80;99.90;;;;;;4930908;28;20222;-69
2023/02/17 04:38:46;;;;;;;6.27;4.57;;;8.80;99.90;;;;;;4944935;28;20757;-70
2023/02/17 04:41:12;;;;;;;6.77;4.63;;;8.80;99.90;;;;;;4942029;28;20535;-70
2023/02/17 04:43:37;;;;;;;5.47;4.40;;;8.80;99.90;;;;;;4926110;29;20251;-71
2023/02/17 04:46:03;;;;;;;7.30;4.70;;;8.80;99.90;;;;;;4926797;28;20225;-71
2023/02/17 04:48:29;;;;;;;5.33;4.30;;;8.80;99.90;;;;;;4926819;29;20235;-71
2023/02/17 04:50:54;;;;;;;5.63;4.27;;;8.80;99.90;;;;;;4925466;29;20253;-70
2023/02/17 04:53:20;;;;;;;8.60;4.37;;;8.90;99.90;;;;;;4927927;28;20219;-70
2023/02/17 04:55:51;;;;;;;6.43;4.53;;;9.00;99.90;;;;;;4930542;29;20270;-70
2023/02/17 04:58:17;;;;;;;5.40;3.60;;;8.90;99.90;;;;;;4942800;28;20228;-70
2023/02/17 05:00:43;;;;;;;4.43;3.80;;;8.90;99.90;;;;;;4942661;28;20535;-70
2023/02/17 05:03:08;;;;;;;6.23;3.90;;;8.90;99.90;;;;;;4923340;28;20460;-71
2023/02/17 05:05:34;;;;;;;5.57;4.30;;;9.00;99.90;;;;;;4921767;29;20227;-70
2023/02/17 05:08:00;;;;;;;7.93;4.27;;;9.00;99.90;;;;;;4918696;28;20223;-71
2023/02/17 05:10:25;;;;;;;5.93;4.17;;;9.10;99.90;;;;;;4924349;29;20234;-70
2023/02/17 05:12:51;;;;;;;3.87;3.30;;;9.10;99.90;;;;;;4917368;29;20243;-70
2023/02/17 05:15:17;;;;;;;5.93;4.00;;;9.10;99.90;;;;;;4930003;28;20246;-71
2023/02/17 05:17:43;;;;;;;4.80;3.60;;;9.10;99.90;;;;;;4924297;29;20229;-71
2023/02/17 05:20:09;;;;;;;6.97;4.37;;;9.10;99.90;;;;;;4922740;29;20463;-71
2023/02/17 05:22:35;;;;;;;6.60;4.27;;;9.10;99.90;;;;;;4924391;29;20949;-70
2023/02/17 05:25:00;;;;;;;3.63;3.33;;;9.10;99.90;;;;;;4920463;29;20463;-70
2023/02/17 05:27:26;;;;;;;5.27;4.10;;;9.10;99.90;;;;;;4926815;29;20223;-71
2023/02/17 05:29:52;;;;;;;5.83;4.00;;;9.20;99.90;;;;;;4917828;29;20239;-71
2023/02/17 05:32:18;;;;;;;6.33;3.83;;;9.10;99.90;;;;;;4918792;29;20764;-71
2023/02/17 05:34:43;;;;;;;4.33;3.60;;;9.10;99.90;;;;;;4936648;28;20223;-70
2023/02/17 05:37:10;;;;;;;6.00;4.13;;;9.10;99.90;;;;;;4927992;29;20223;-70
2023/02/17 05:39:35;;;;;;;6.97;4.63;;;9.20;99.90;;;;;;4909731;29;20752;-71
2023/02/17 05:42:01;;;;;;;5.90;3.70;;;9.20;99.90;;;;;;4922315;28;20459;-70
2023/02/17 05:44:27;;;;;;;4.27;3.57;;;9.20;99.90;;;;;;4929846;29;20248;-70
2023/02/17 05:46:52;;;;;;;5.77;3.90;;;9.20;99.90;;;;;;4932799;28;20215;-70
2023/02/17 05:49:18;;;;;;;5.30;3.93;;;9.20;99.90;;;;;;4924386;29;20242;-71
2023/02/17 05:51:44;;;;;;;6.03;3.50;;;9.20;99.90;;;;;;4921109;29;20800;-70
2023/02/17 05:54:09;;;;;;;6.93;4.47;;;9.20;99.90;;;;;;4925362;28;20265;-70
2023/02/17 05:56:35;;;;;;;5.40;3.10;;;9.20;99.90;;;;;;4911940;29;20238;-69
2023/02/17 05:59:01;;;;;;;6.17;4.23;;;9.20;99.90;;;;;;4907814;28;20223;-71
2023/02/17 06:01:26;;;;;;;6.00;4.27;;;9.20;99.90;;;;;;4924501;29;20215;-69
2023/02/17 06:03:52;;;;;;;6.10;3.70;;;9.30;99.90;;;;;;4920798;29;20227;-71
2023/02/17 06:06:18;;;;;;;8.20;4.00;;;9.30;99.90;;;;;;4918827;29;20462;-69
2023/02/17 06:08:43;;;;;;;5.90;3.00;;;9.30;99.90;;;;;;4917863;29;20231;-72
2023/02/17 06:11:09;;;;;;;6.43;4.17;;;9.30;99.90;;;;;;4920154;28;20238;-71
2023/02/17 06:13:35;;;;;;;7.37;4.10;;;9.30;99.90;;;;;;4924891;29;20226;-68
2023/02/17 06:16:01;;;;;;;5.77;4.10;;;9.30;99.90;;;;;;4927495;29;20224;-68
2023/02/17 06:18:27;;;;;;;3.30;3.00;;;9.30;99.90;;;;;;4911436;29;20463;-69
2023/02/17 06:20:56;;;;;;;5.50;3.90;;;9.30;99.90;;;;;;4910592;28;20471;-69
2023/02/17 06:23:24;;;;;;;3.60;3.10;;;9.30;99.90;;;;;;4928757;29;20223;-68
2023/02/17 06:25:49;;;;;;;4.47;3.77;;;9.30;99.90;;;;;;4922467;28;20467;-71
2023/02/17 06:28:15;;;;;;;5.67;3.90;;;9.30;99.90;;;;;;4930011;29;20459;-70
2023/02/17 06:30:41;;;;;;;5.87;4.30;;;9.30;99.90;;;;;;4893509;29;20234;-71
2023/02/17 06:33:06;;;;;;;5.47;3.73;;;9.30;99.90;;;;;;4925128;29;20220;-70
2023/02/17 06:35:32;;;;;;;5.73;4.03;;;9.40;99.90;;;;;;4925469;28;20226;-68
2023/02/17 06:37:57;;;;;;;3.33;3.03;;;9.30;99.90;;;;;;4927998;29;20235;-71
2023/02/17 06:40:23;;;;;;;4.67;3.83;;;9.40;99.90;;;;;;4925626;29;20229;-68
2023/02/17 06:42:49;;;;;;;4.87;3.50;;;9.40;99.90;;;;;;4919596;29;20224;-70
2023/02/17 06:45:15;;;;;;;5.00;3.40;;;9.40;99.90;;;;;;4925393;29;20231;-70
2023/02/17 06:47:40;;;;;;;6.90;3.57;;;9.40;99.90;;;;;;4945702;28;20297;-69
2023/02/17 06:50:07;;;;;;;3.73;2.93;;;9.40;99.90;;;;;;4922868;29;20237;-72
2023/02/17 06:52:32;;;;;;;3.87;2.60;;;9.40;99.90;;;;;;4905735;29;20310;-71
2023/02/17 06:54:58;;;;;;;3.87;3.30;;;9.40;99.90;;;;;;4925421;28;20567;-71
2023/02/17 06:57:24;;;;;;;4.40;3.60;;;9.40;99.90;;;;;;4925417;28;20222;-71
2023/02/17 06:59:49;;;;;;;6.20;3.90;;;9.40;99.90;;;;;;4930273;29;20226;-70
2023/02/17 07:02:15;;;;;;;7.50;4.30;;;9.40;99.90;;;;;;4919312;29;20636;-71
2023/02/17 07:04:41;;;;;;;6.73;3.93;;;9.40;99.90;;;;;;4929974;29;20219;-70
2023/02/17 07:07:08;;;;;;;11.10;5.10;;;9.50;99.90;;;;;;4930174;29;20233;-71
2023/02/17 07:09:34;;;;;;;7.97;4.20;;;9.50;99.90;;;;;;4940565;28;20539;-71
2023/02/17 07:12:00;;;;;;;6.77;4.70;;;9.50;99.90;;;;;;4938135;28;20479;-71
2023/02/17 07:14:26;;;;;;;7.17;4.10;;;9.50;99.90;;;;;;4913265;29;20459;-71
2023/02/17 07:16:52;;;;;;;7.80;4.20;;;9.50;99.90;;;;;;4926697;28;20473;-71
2023/02/17 07:19:17;;;;;;;6.97;3.97;;;9.50;99.90;;;;;;4920812;29;20239;-69
2023/02/17 07:21:44;;;;;;;5.00;3.87;;;9.60;99.90;;;;;;4943968;28;20479;-71
2023/02/17 07:24:10;;;;;;;4.90;4.10;;;9.60;99.90;;;;;;4924473;29;20232;-70
2023/02/17 07:26:37;;;;;;;7.60;5.10;;;9.60;99.90;;;;;;4928571;28;20483;-70
2023/02/17 07:29:04;;;;;;;4.73;3.53;;;9.70;99.90;;;;;;4922830;29;20524;-71
2023/02/17 07:31:30;;;;;;;6.00;4.40;;;9.70;99.90;;;;;;4925919;28;20486;-70
2023/02/17 07:33:56;;;;;;;8.83;4.10;;;9.70;99.90;;;;;;4926775;29;20471;-71
2023/02/17 07:36:21;;;;;;;5.93;4.37;;;9.80;99.90;;;;;;4923473;29;20630;-71
2023/02/17 07:38:48;;;;;;;6.50;3.70;;;9.80;99.90;;;;;;4923960;29;20722;-71
2023/02/17 07:41:16;;;;;;;3.67;3.33;;;9.80;99.90;;;;;;4905378;29;20235;-70
2023/02/17 07:43:42;;;;;;;5.73;4.07;;;9.80;99.90;;;;;;4925831;29;20470;-69
2023/02/17 07:46:09;;;;;;;5.20;4.20;;;9.90;99.90;;;;;;4915713;28;20509;-70
2023/02/17 07:48:35;;;;;;;5.80;4.10;;;9.90;99.90;;;;;;4924437;28;20251;-70
2023/02/17 07:51:05;;;;;;;5.60;3.90;;;9.90;99.90;;;;;;4928373;28;21027;-70
2023/02/17 07:53:32;;;;;;;6.80;5.33;;;9.90;99.90;;;;;;4941426;28;21024;-70
2023/02/17 07:55:57;;;;;;;5.97;4.53;;;9.90;99.90;;;;;;4923420;28;20474;-71
2023/02/17 07:58:23;;;;;;;7.73;5.30;;;10.00;99.90;;;;;;4925680;28;20465;-69
2023/02/17 08:00:48;;;;;;;6.50;4.50;;;10.00;99.90;;;;;;4925166;28;20228;-70
2023/02/17 08:03:14;;;;;;;5.17;4.23;;;10.00;99.90;;;;;;4941194;28;20227;-70
2023/02/17 08:05:41;;;;;;;6.53;4.27;;;10.00;99.90;;;;;;4907959;29;20279;-70
2023/02/17 08:13:35;;;;;;;6.73;4.60;;;10.10;99.90;;;;;;4915909;29;20475;-71
2023/02/17 08:16:01;;;;;;;7.17;4.27;;;10.10;99.90;;;;;;4918315;28;20463;-71
2023/02/17 08:18:27;;;;;;;5.33;4.30;;;10.10;99.90;;;;;;4923262;28;20256;-72
2023/02/17 08:20:52;;;;;;;6.27;4.57;;;10.10;99.90;;;;;;4929953;29;20600;-71
2023/02/17 08:23:21;;;;;;;8.37;4.67;;;10.20;99.90;;;;;;4926531;29;20708;-70
2023/02/17 08:25:47;;;;;;;4.27;3.50;;;10.20;99.90;;;;;;4906885;29;20771;-72
2023/02/17 08:28:13;;;;;;;5.00;4.30;;;10.20;99.90;;;;;;4939608;28;20463;-69
2023/02/17 08:30:38;;;;;;;6.10;3.73;;;10.20;99.90;;;;;;4939983;28;20223;-71
2023/02/17 08:33:05;;;;;;;6.40;4.90;;;10.30;99.90;;;;;;4916511;28;20701;-71
2023/02/17 08:35:31;;;;;;;5.93;4.20;;;10.30;99.90;;;;;;4910989;28;20231;-70
2023/02/17 08:37:57;;;;;;;7.40;4.80;;;10.30;99.90;;;;;;4919274;28;20571;-71
2023/02/17 08:40:23;;;;;;;5.70;4.53;;;10.30;99.90;;;;;;4907742;29;20585;-71
2023/02/17 08:42:49;;;;;;;6.80;4.23;;;10.30;99.90;;;;;;4931454;28;20310;-71
2023/02/17 08:45:16;;;;;;;8.40;3.77;;;10.30;99.90;;;;;;4929102;29;20489;-71
2023/02/17 08:47:41;;;;;;;6.17;4.37;;;10.30;99.90;;;;;;4924621;29;20290;-71
2023/02/17 08:50:09;;;;;;;6.07;3.57;;;10.30;99.90;;;;;;4923836;29;20470;-71
2023/02/17 08:52:35;;;;;;;5.87;4.07;;;10.30;99.90;;;;;;4943539;28;20241;-71
2023/02/17 08:55:01;;;;;;;11.63;4.80;;;10.30;99.90;;;;;;4926189;28;20495;-71
2023/02/17 08:57:26;;;;;;;4.63;4.10;;;10.30;99.90;;;;;;4943617;28;20554;-71
2023/02/17 08:59:53;;;;;;;4.73;3.93;;;10.40;99.90;;;;;;4919750;29;20601;-71
2023/02/17 09:02:18;;;;;;;10.10;7.07;;;10.40;99.90;;;;;;4942854;28;20311;-70
2023/02/17 09:04:44;;;;;;;7.77;6.07;;;10.40;99.90;;;;;;4930507;29;20543;-72
2023/02/17 09:07:13;;;;;;;6.40;4.50;;;10.40;99.90;;;;;;4923912;29;20251;-71
2023/02/17 09:09:40;;;;;;;10.30;7.53;;;10.40;99.90;;;;;;4922820;29;20982;-71
2023/02/17 09:12:06;;;;;;;9.10;8.03;;;10.40;99.90;;;;;;4924102;29;20474;-71
2023/02/17 09:14:31;;;;;;;7.33;6.37;;;10.40;99.90;;;;;;4943558;28;20459;-69
2023/02/17 09:16:57;;;;;;;6.30;5.07;;;10.40;99.90;;;;;;4930611;28;20989;-70
2023/02/17 09:19:24;;;;;;;7.70;5.37;;;10.50;99.90;;;;;;4922223;29;20223;-67
2023/02/17 09:21:50;;;;;;;5.90;4.57;;;10.60;99.90;;;;;;4922760;29;20228;-71
2023/02/17 09:24:17;;;;;;;6.70;5.60;;;10.60;99.90;;;;;;4922800;28;20464;-70
2023/02/17 09:26:42;;;;;;;16.37;10.80;;;10.60;99.90;;;;;;4943961;28;20307;-71
2023/02/17 09:29:08;;;;;;;11.33;7.63;;;10.60;99.90;;;;;;4927648;28;21012;-71
2023/02/17 09:31:35;;;;;;;7.83;5.70;;;10.60;99.90;;;;;;4928178;29;20223;-71
2023/02/17 09:34:01;;;;;;;8.00;5.53;;;10.60;99.90;;;;;;4927984;29;20247;-71
2023/02/17 09:36:33;;;;;;;6.00;4.53;;;10.70;99.90;;;;;;4921168;29;21010;-71
2023/02/17 09:38:59;;;;;;;6.27;4.77;;;10.70;99.90;;;;;;4904022;29;20487;-71
2023/02/17 09:41:46;;;;;;;7.90;5.87;;;10.70;99.90;;;;;;4924440;29;20977;-71
2023/02/17 09:44:26;;;;;;;7.83;4.87;;;10.80;99.90;;;;;;4915938;29;20219;-71
2023/02/17 09:47:15;;;;;;;6.13;4.43;;;10.80;99.90;;;;;;4915755;28;20965;-71
2023/02/17 09:50:08;;;;;;;6.20;5.00;;;10.80;99.90;;;;;;4948108;28;20479;-70
2023/02/17 09:53:16;;;;;;;5.73;4.07;;;10.80;99.90;;;;;;4923342;28;20495;-71
2023/02/17 09:55:48;;;;;;;7.43;4.77;;;10.80;99.90;;;;;;4897979;28;20510;-71
2023/02/17 09:58:27;;;;;;;11.10;5.43;;;10.90;99.90;;;;;;4927016;29;20522;-71
2023/02/17 10:00:57;;;;;;;6.07;4.73;;;10.90;99.90;;;;;;4925641;29;20479;-71
2023/02/17 10:03:31;;;;;;;6.53;5.10;;;11.00;99.90;;;;;;4922505;29;20890;-71
2023/02/17 10:06:23;;;;;;;4.73;3.83;;;11.10;99.90;;;;;;4951049;28;21010;-71
2023/02/17 10:09:27;;;;;;;5.30;3.60;;;11.20;99.90;;;;;;4943769;28;20480;-71
2023/02/17 10:12:08;;;;;;;5.47;4.13;;;11.30;99.90;;;;;;4918520;29;20470;-72
2023/02/17 10:14:55;;;;;;;5.40;3.87;;;11.40;99.90;;;;;;4922109;28;20859;-71
2023/02/17 10:17:38;;;;;;;5.10;3.93;;;11.40;99.90;;;;;;4923356;29;20458;-70
2023/02/17 10:20:14;;;;;;;5.07;3.67;;;11.40;99.90;;;;;;4925051;28;20828;-72
2023/02/17 10:22:45;;;;;;;5.07;4.20;;;11.40;99.90;;;;;;4953057;28;20463;-70
2023/02/17 10:25:21;;;;;;;6.10;5.00;;;11.40;99.90;;;;;;4954908;28;20824;-70
2023/02/17 10:28:08;;;;;;;6.27;4.90;;;11.40;99.90;;;;;;4921390;28;20977;-71
2023/02/17 10:30:47;;;;;;;4.70;3.83;;;11.40;99.90;;;;;;4921701;29;20487;-71
2023/02/17 10:33:28;;;;;;;5.00;3.70;;;11.40;99.90;;;;;;4933823;29;20439;-71
2023/02/17 10:36:29;;;;;;;4.87;3.40;;;11.50;99.90;;;;;;4917734;29;20985;-72
2023/02/17 10:39:02;;;;;;;4.67;3.57;;;11.50;99.90;;;;;;4925611;28;20667;-72
2023/02/17 10:41:35;;;;;;;4.70;3.53;;;11.50;99.90;;;;;;4904906;29;20455;-68
2023/02/17 10:44:05;;;;;;;5.23;2.97;;;11.60;99.90;;;;;;4919767;29;20456;-71
2023/02/17 10:46:31;;;;;;;6.13;3.63;;;11.60;99.90;;;;;;4917513;29;20459;-71
2023/02/17 10:48:58;;;;;;;3.33;3.03;;;11.60;99.90;;;;;;4909499;29;21028;-71
2023/02/17 10:51:27;;;;;;;5.60;3.90;;;11.70;99.90;;;;;;4915407;29;20223;-72
2023/02/17 10:54:15;;;;;;;4.77;3.23;;;11.70;99.90;;;;;;4935322;28;20472;-71
2023/02/17 10:56:45;;;;;;;4.83;3.63;;;11.70;99.90;;;;;;4932655;28;20471;-71
2023/02/17 10:59:27;;;;;;;3.43;3.13;;;11.70;99.90;;;;;;4946235;28;20466;-71
2023/02/17 11:02:12;;;;;;;3.70;3.10;;;11.70;99.90;;;;;;4940631;28;20455;-72
2023/02/17 11:04:42;;;;;;;4.00;3.03;;;11.80;99.90;;;;;;4922139;29;20459;-71
2023/02/17 11:07:12;;;;;;;4.50;3.10;;;11.80;99.90;;;;;;4915195;28;20451;-71
2023/02/17 11:09:44;;;;;;;3.97;3.10;;;11.80;99.90;;;;;;4917879;29;20472;-70
2023/02/17 11:12:23;;;;;;;4.90;3.40;;;11.90;99.90;;;;;;4918781;29;20467;-71
2023/02/17 11:14:52;;;;;;;4.80;3.23;;;11.90;99.90;;;;;;4916753;28;20467;-72
2023/02/17 11:17:37;;;;;;;3.93;3.03;;;12.00;99.90;;;;;;4941976;28;20841;-70
2023/02/17 11:20:14;;;;;;;5.03;3.83;;;12.00;99.90;;;;;;4927729;28;20479;-72
2023/02/17 11:22:44;;;;;;;5.77;4.13;;;12.10;99.90;;;;;;4918210;29;20466;-71
2023/02/17 11:25:34;;;;;;;5.17;4.33;;;12.10;99.90;;;;;;4919880;29;20456;-72
2023/02/17 11:28:22;;;;;;;6.40;4.80;;;12.10;99.90;;;;;;4908546;29;20526;-71
2023/02/17 11:30:51;;;;;;;5.70;4.47;;;12.20;99.90;;;;;;4920857;29;20535;-71
2023/02/17 11:33:27;;;;;;;4.03;3.50;;;12.20;99.90;;;;;;4921137;29;20475;-69
2023/02/17 11:35:54;;;;;;;5.23;4.10;;;12.20;99.90;;;;;;4906384;28;20567;-72
2023/02/17 11:38:24;;;;;;;3.30;2.90;;;12.20;99.90;;;;;;4918552;29;20510;-72
2023/02/17 11:40:53;;;;;;;5.63;4.23;;;12.40;99.90;;;;;;4905132;29;20507;-71
2023/02/17 11:43:19;;;;;;;4.77;3.07;;;12.60;99.90;;;;;;4932016;28;20490;-71
2023/02/17 11:46:09;;;;;;;4.07;3.00;;;12.70;99.90;;;;;;4923141;28;20456;-71
2023/02/17 11:48:58;;;;;;;4.60;3.40;;;12.80;99.90;;;;;;4922870;29;21044;-71
2023/02/17 11:51:51;;;;;;;3.47;2.70;;;12.90;99.90;;;;;;4952969;28;20972;-71
2023/02/17 11:54:42;;;;;;;3.20;2.67;;;13.00;99.90;;;;;;4929028;29;20455;-70
2023/02/17 11:57:19;;;;;;;2.67;2.43;;;12.90;99.90;;;;;;4943264;28;20447;-72
2023/02/17 11:59:59;;;;;;;3.70;2.50;;;12.90;99.90;;;;;;4923382;28;20487;-72
2023/02/17 12:02:43;;;;;;;3.70;2.57;;;12.80;99.90;;;;;;4931308;29;20458;-71
2023/02/17 12:05:21;;;;;;;3.07;2.00;;;12.70;99.90;;;;;;4955230;28;20458;-70
2023/02/17 12:08:05;;;;;;;2.70;2.50;;;12.60;99.90;;;;;;4924454;28;20553;-72
2023/02/17 12:10:44;;;;;;;3.17;2.47;;;12.60;99.90;;;;;;4945192;28;20542;-72
2023/02/17 12:13:40;;;;;;;2.37;2.13;;;12.50;99.90;;;;;;4925934;29;20507;-71
2023/02/17 12:16:21;;;;;;;2.10;1.90;;;12.50;99.90;;;;;;4946835;28;20542;-71
2023/02/17 12:18:59;;;;;;;2.33;2.07;;;12.40;99.90;;;;;;4927826;28;21003;-71
2023/02/17 12:21:50;;;;;;;2.33;1.80;;;12.40;99.90;;;;;;4947914;28;20472;-71
2023/02/17 12:24:33;;;;;;;2.40;2.20;;;12.40;99.90;;;;;;4919060;29;20487;-70
2023/02/17 12:27:07;;;;;;;2.97;1.97;;;12.40;99.90;;;;;;4924851;29;20551;-71
2023/02/17 12:29:51;;;;;;;1.90;1.80;;;12.40;99.90;;;;;;4951935;28;20483;-72
2023/02/17 12:32:45;;;;;;;3.00;1.93;;;12.50;99.90;;;;;;4930810;29;20455;-71
2023/02/17 12:35:29;;;;;;;4.90;4.40;;;12.40;99.90;;;;;;4921177;29;20459;-71
2023/02/17 12:38:03;;;;;;;6.57;5.20;;;12.50;99.90;;;;;;4916061;28;20507;-71
2023/02/17 12:40:43;;;;;;;9.73;5.47;;;12.40;99.90;;;;;;4908900;29;20471;-72
2023/02/17 12:43:29;;;;;;;5.50;5.00;;;12.50;99.90;;;;;;4907167;29;20459;-72
2023/02/17 12:46:02;;;;;;;19.90;15.10;;;12.40;99.90;;;;;;4914222;28;20615;-70
2023/02/17 12:48:43;;;;;;;11.23;8.50;;;12.40;99.90;;;;;;4921573;28;20481;-70
2023/02/17 12:51:38;;;;;;;3.40;3.10;;;12.50;99.90;;;;;;4928924;29;20475;-71
2023/02/17 12:54:19;;;;;;;3.97;2.90;;;12.40;99.90;;;;;;4864621;29;20574;-71
2023/02/17 12:57:16;;;;;;;2.60;2.40;;;12.40;99.90;;;;;;4938300;28;20510;-71
2023/02/17 12:59:44;;;;;;;2.60;2.10;;;12.40;99.90;;;;;;4924469;28;20479;-71
2023/02/17 13:02:14;;;;;;;2.40;2.20;;;12.40;99.90;;;;;;4925412;28;20455;-71
2023/02/17 13:04:46;;;;;;;2.20;1.80;;;12.50;99.90;;;;;;4930580;29;20475;-71
2023/02/17 13:07:52;;;;;;;2.63;2.40;;;12.50;99.90;;;;;;4938853;28;20479;-72
2023/02/17 13:10:26;;;;;;;2.97;2.40;;;12.50;99.90;;;;;;4913394;29;20464;-71
2023/02/17 13:13:19;;;;;;;2.60;2.40;;;12.50;99.90;;;;;;4920692;28;20475;-71